sensor_id;sensor_type;location;lat;lon;timestamp;pressure;altitude;pressure_sealevel;temperature;humidity
9091;BME280;4581;42.416;25.598;2023-06-22T00:01:19;98646.72;;;22.95;82.05
9091;BME280;4581;42.416;25.598;2023-06-22T00:03:48;98642.31;;;22.94;81.46
9091;BME280;4581;42.416;25.598;2023-06-22T00:06:15;98647.22;;;22.92;81.16
9091;BME280;4581;42.416;25.598;2023-06-22T00:08:42;98657.22;;;22.98;81.73
9091;BME280;4581;42.416;25.598;2023-06-22T00:11:08;98651.06;;;22.91;82.99
9091;BME280;4581;42.416;25.598;2023-06-22T00:13:35;98647.13;;;22.87;83.39
9091;BME280;4581;42.416;25.598;2023-06-22T00:16:02;98654.59;;;22.87;83.25
9091;BME280;4581;42.416;25.598;2023-06-22T00:18:29;98660.88;;;22.87;83.24
9091;BME280;4581;42.416;25.598;2023-06-22T00:20:57;98652.31;;;22.83;83.07
9091;BME280;4581;42.416;25.598;2023-06-22T00:23:25;98648.72;;;22.83;83.70
9091;BME280;4581;42.416;25.598;2023-06-22T00:25:52;98653.16;;;22.84;83.99
9091;BME280;4581;42.416;25.598;2023-06-22T00:28:19;98659.16;;;22.81;83.64
9091;BME280;4581;42.416;25.598;2023-06-22T00:30:48;98654.16;;;22.78;83.80
9091;BME280;4581;42.416;25.598;2023-06-22T00:33:15;98641.22;;;22.62;84.16
9091;BME280;4581;42.416;25.598;2023-06-22T00:35:43;98650.22;;;22.57;83.71
9091;BME280;4581;42.416;25.598;2023-06-22T00:38:10;98636.47;;;22.57;83.18
9091;BME280;4581;42.416;25.598;2023-06-22T00:40:37;98650.31;;;22.46;83.91
9091;BME280;4581;42.416;25.598;2023-06-22T00:43:05;98647.69;;;22.39;84.88
9091;BME280;4581;42.416;25.598;2023-06-22T00:45:32;98655.69;;;22.40;84.31
9091;BME280;4581;42.416;25.598;2023-06-22T00:47:59;98657.50;;;22.35;83.86
9091;BME280;4581;42.416;25.598;2023-06-22T00:50:29;98656.28;;;22.26;84.79
9091;BME280;4581;42.416;25.598;2023-06-22T00:53:03;98648.16;;;22.19;85.35
9091;BME280;4581;42.416;25.598;2023-06-22T00:55:36;98649.91;;;22.09;85.24
9091;BME280;4581;42.416;25.598;2023-06-22T00:58:04;98653.63;;;22.03;85.84
9091;BME280;4581;42.416;25.598;2023-06-22T01:00:34;98648.91;;;21.98;86.60
9091;BME280;4581;42.416;25.598;2023-06-22T01:03:01;98640.78;;;21.91;86.67
9091;BME280;4581;42.416;25.598;2023-06-22T01:05:28;98640.78;;;21.91;86.94
9091;BME280;4581;42.416;25.598;2023-06-22T01:08:00;98646.50;;;21.90;87.30
9091;BME280;4581;42.416;25.598;2023-06-22T01:13:11;98636.13;;;21.92;87.60
9091;BME280;4581;42.416;25.598;2023-06-22T01:15:45;98637.19;;;21.91;87.10
9091;BME280;4581;42.416;25.598;2023-06-22T01:18:17;98636.59;;;21.89;86.98
9091;BME280;4581;42.416;25.598;2023-06-22T01:20:45;98641.41;;;21.82;87.73
9091;BME280;4581;42.416;25.598;2023-06-22T01:23:25;98632.47;;;21.75;87.39
9091;BME280;4581;42.416;25.598;2023-06-22T01:26:06;98620.09;;;21.72;87.47
9091;BME280;4581;42.416;25.598;2023-06-22T01:28:49;98620.31;;;21.71;87.01
9091;BME280;4581;42.416;25.598;2023-06-22T01:31:19;98609.72;;;21.63;87.58
9091;BME280;4581;42.416;25.598;2023-06-22T01:33:50;98619.00;;;21.73;87.60
9091;BME280;4581;42.416;25.598;2023-06-22T01:36:18;98614.34;;;21.74;87.78
9091;BME280;4581;42.416;25.598;2023-06-22T01:38:47;98620.56;;;21.69;87.73
9091;BME280;4581;42.416;25.598;2023-06-22T01:41:16;98609.72;;;21.63;87.46
9091;BME280;4581;42.416;25.598;2023-06-22T01:43:43;98617.38;;;21.61;87.39
9091;BME280;4581;42.416;25.598;2023-06-22T01:46:11;98626.00;;;21.53;87.72
9091;BME280;4581;42.416;25.598;2023-06-22T01:48:39;98622.41;;;21.52;88.01
9091;BME280;4581;42.416;25.598;2023-06-22T01:51:06;98620.66;;;21.46;87.98
9091;BME280;4581;42.416;25.598;2023-06-22T01:53:33;98613.63;;;21.38;88.83
9091;BME280;4581;42.416;25.598;2023-06-22T01:56:00;98617.81;;;21.41;88.60
9091;BME280;4581;42.416;25.598;2023-06-22T01:58:28;98617.34;;;21.32;89.42
9091;BME280;4581;42.416;25.598;2023-06-22T02:01:12;98619.03;;;21.33;89.12
9091;BME280;4581;42.416;25.598;2023-06-22T02:03:57;98622.38;;;21.24;88.48
9091;BME280;4581;42.416;25.598;2023-06-22T02:06:36;98618.94;;;21.17;89.53
9091;BME280;4581;42.416;25.598;2023-06-22T02:09:13;98626.81;;;21.13;89.59
9091;BME280;4581;42.416;25.598;2023-06-22T02:11:42;98632.53;;;21.12;90.51
9091;BME280;4581;42.416;25.598;2023-06-22T02:14:10;98626.88;;;21.07;90.07
9091;BME280;4581;42.416;25.598;2023-06-22T02:16:38;98638.25;;;21.10;91.08
9091;BME280;4581;42.416;25.598;2023-06-22T02:19:05;98638.59;;;21.02;91.41
9091;BME280;4581;42.416;25.598;2023-06-22T02:21:32;98635.03;;;21.01;91.49
9091;BME280;4581;42.416;25.598;2023-06-22T02:23:59;98642.03;;;21.09;90.14
9091;BME280;4581;42.416;25.598;2023-06-22T02:26:26;98646.00;;;21.01;90.77
9091;BME280;4581;42.416;25.598;2023-06-22T02:28:53;98644.81;;;20.97;91.10
9091;BME280;4581;42.416;25.598;2023-06-22T02:31:20;98640.97;;;20.98;91.64
9091;BME280;4581;42.416;25.598;2023-06-22T02:33:47;98647.28;;;20.99;92.19
9091;BME280;4581;42.416;25.598;2023-06-22T02:36:14;98648.97;;;21.00;91.54
9091;BME280;4581;42.416;25.598;2023-06-22T02:38:43;98641.34;;;21.02;91.33
9091;BME280;4581;42.416;25.598;2023-06-22T02:41:15;98651.34;;;21.08;91.77
9091;BME280;4581;42.416;25.598;2023-06-22T02:43:45;98650.16;;;21.04;92.24
9091;BME280;4581;42.416;25.598;2023-06-22T02:46:13;98645.28;;;21.06;92.01
9091;BME280;4581;42.416;25.598;2023-06-22T02:48:40;98651.72;;;21.12;92.21
9091;BME280;4581;42.416;25.598;2023-06-22T02:51:07;98654.31;;;20.95;92.95
9091;BME280;4581;42.416;25.598;2023-06-22T02:53:34;98661.25;;;20.97;93.24
9091;BME280;4581;42.416;25.598;2023-06-22T02:56:02;98658.25;;;20.99;92.51
9091;BME280;4581;42.416;25.598;2023-06-22T02:58:32;98656.97;;;20.90;93.22
9091;BME280;4581;42.416;25.598;2023-06-22T03:01:08;98656.22;;;20.94;92.58
9091;BME280;4581;42.416;25.598;2023-06-22T03:03:36;98658.13;;;20.82;93.06
9091;BME280;4581;42.416;25.598;2023-06-22T03:06:03;98655.88;;;20.91;92.60
9091;BME280;4581;42.416;25.598;2023-06-22T03:08:30;98661.13;;;20.92;93.75
9091;BME280;4581;42.416;25.598;2023-06-22T03:10:56;98656.00;;;20.84;93.40
9091;BME280;4581;42.416;25.598;2023-06-22T03:13:23;98652.19;;;20.85;93.93
9091;BME280;4581;42.416;25.598;2023-06-22T03:15:50;98653.38;;;20.89;93.77
9091;BME280;4581;42.416;25.598;2023-06-22T03:18:17;98649.19;;;20.98;93.40
9091;BME280;4581;42.416;25.598;2023-06-22T03:20:43;98647.78;;;20.96;94.07
9091;BME280;4581;42.416;25.598;2023-06-22T03:23:10;98650.16;;;21.04;93.86
9091;BME280;4581;42.416;25.598;2023-06-22T03:25:37;98650.88;;;20.99;93.46
9091;BME280;4581;42.416;25.598;2023-06-22T03:28:04;98654.94;;;20.97;94.10
9091;BME280;4581;42.416;25.598;2023-06-22T03:30:30;98651.69;;;21.00;94.34
9091;BME280;4581;42.416;25.598;2023-06-22T03:32:57;98652.31;;;21.02;94.42
9091;BME280;4581;42.416;25.598;2023-06-22T03:35:24;98662.78;;;21.05;94.83
9091;BME280;4581;42.416;25.598;2023-06-22T03:37:51;98660.97;;;21.11;94.19
9091;BME280;4581;42.416;25.598;2023-06-22T03:40:17;98661.13;;;21.04;93.59
9091;BME280;4581;42.416;25.598;2023-06-22T03:42:45;98660.41;;;21.09;93.65
9091;BME280;4581;42.416;25.598;2023-06-22T03:45:12;98660.31;;;21.15;93.39
9091;BME280;4581;42.416;25.598;2023-06-22T03:47:38;98651.69;;;21.23;93.76
9091;BME280;4581;42.416;25.598;2023-06-22T03:50:06;98653.38;;;21.24;93.71
9091;BME280;4581;42.416;25.598;2023-06-22T03:52:33;98654.78;;;21.27;93.63
9091;BME280;4581;42.416;25.598;2023-06-22T03:54:59;98661.34;;;21.37;94.48
9091;BME280;4581;42.416;25.598;2023-06-22T03:57:26;98656.72;;;21.38;94.48
9091;BME280;4581;42.416;25.598;2023-06-22T03:59:56;98658.13;;;21.40;95.00
9091;BME280;4581;42.416;25.598;2023-06-22T04:02:23;98657.59;;;21.55;94.34
9091;BME280;4581;42.416;25.598;2023-06-22T04:04:49;98650.34;;;21.49;94.75
9091;BME280;4581;42.416;25.598;2023-06-22T04:07:16;98654.50;;;21.52;95.04
9091;BME280;4581;42.416;25.598;2023-06-22T04:09:44;98656.06;;;21.47;94.63
9091;BME280;4581;42.416;25.598;2023-06-22T04:12:11;98663.81;;;21.51;93.96
9091;BME280;4581;42.416;25.598;2023-06-22T04:14:37;98670.25;;;21.56;94.08
9091;BME280;4581;42.416;25.598;2023-06-22T04:17:04;98665.09;;;21.60;94.18
9091;BME280;4581;42.416;25.598;2023-06-22T04:19:31;98672.38;;;21.66;93.59
9091;BME280;4581;42.416;25.598;2023-06-22T04:21:58;98665.94;;;21.60;94.63
9091;BME280;4581;42.416;25.598;2023-06-22T04:24:24;98675.97;;;21.66;93.60
9091;BME280;4581;42.416;25.598;2023-06-22T04:26:51;98679.13;;;21.75;92.88
9091;BME280;4581;42.416;25.598;2023-06-22T04:29:21;98690.94;;;21.75;93.12
9091;BME280;4581;42.416;25.598;2023-06-22T04:31:56;98686.19;;;21.82;90.67
9091;BME280;4581;42.416;25.598;2023-06-22T04:34:25;98685.72;;;21.74;91.19
9091;BME280;4581;42.416;25.598;2023-06-22T04:36:52;98693.47;;;21.77;90.47
9091;BME280;4581;42.416;25.598;2023-06-22T04:39:19;98701.19;;;21.80;91.11
9091;BME280;4581;42.416;25.598;2023-06-22T04:41:46;98709.31;;;21.86;91.01
9091;BME280;4581;42.416;25.598;2023-06-22T04:44:15;98704.38;;;22.00;92.05
9091;BME280;4581;42.416;25.598;2023-06-22T04:46:52;98691.22;;;22.14;92.19
9091;BME280;4581;42.416;25.598;2023-06-22T04:49:27;98701.31;;;22.25;91.58
9091;BME280;4581;42.416;25.598;2023-06-22T04:52:05;98706.41;;;22.33;90.41
9091;BME280;4581;42.416;25.598;2023-06-22T04:54:33;98705.47;;;22.27;91.28
9091;BME280;4581;42.416;25.598;2023-06-22T04:57:02;98706.28;;;22.28;91.69
9091;BME280;4581;42.416;25.598;2023-06-22T04:59:30;98704.28;;;22.23;92.33
9091;BME280;4581;42.416;25.598;2023-06-22T05:01:58;98697.03;;;22.17;93.51
9091;BME280;4581;42.416;25.598;2023-06-22T05:04:27;98722.59;;;22.46;92.30
9091;BME280;4581;42.416;25.598;2023-06-22T05:07:02;98705.72;;;22.71;91.37
9091;BME280;4581;42.416;25.598;2023-06-22T05:09:30;98708.47;;;23.04;89.07
9091;BME280;4581;42.416;25.598;2023-06-22T05:11:56;98712.38;;;23.25;89.80
9091;BME280;4581;42.416;25.598;2023-06-22T05:14:23;98721.91;;;23.39;86.87
9091;BME280;4581;42.416;25.598;2023-06-22T05:16:50;98723.03;;;23.38;86.08
9091;BME280;4581;42.416;25.598;2023-06-22T05:19:18;98733.34;;;23.48;84.60
9091;BME280;4581;42.416;25.598;2023-06-22T05:21:45;98719.94;;;23.73;85.26
9091;BME280;4581;42.416;25.598;2023-06-22T05:24:12;98718.41;;;23.82;85.85
9091;BME280;4581;42.416;25.598;2023-06-22T05:26:38;98716.47;;;24.04;82.02
9091;BME280;4581;42.416;25.598;2023-06-22T05:29:05;98718.28;;;24.15;83.56
9091;BME280;4581;42.416;25.598;2023-06-22T05:31:33;98717.03;;;24.28;81.10
9091;BME280;4581;42.416;25.598;2023-06-22T05:34:00;98721.22;;;24.31;81.43
9091;BME280;4581;42.416;25.598;2023-06-22T05:36:27;98721.75;;;24.54;81.08
9091;BME280;4581;42.416;25.598;2023-06-22T05:38:57;98722.50;;;24.77;79.28
9091;BME280;4581;42.416;25.598;2023-06-22T05:41:24;98722.34;;;24.88;77.21
9091;BME280;4581;42.416;25.598;2023-06-22T05:43:51;98733.03;;;25.11;77.13
9091;BME280;4581;42.416;25.598;2023-06-22T05:46:18;98726.59;;;25.38;75.88
9091;BME280;4581;42.416;25.598;2023-06-22T05:48:45;98721.66;;;25.45;73.09
9091;BME280;4581;42.416;25.598;2023-06-22T05:51:12;98730.59;;;25.57;72.04
9091;BME280;4581;42.416;25.598;2023-06-22T05:53:39;98729.63;;;25.78;72.49
9091;BME280;4581;42.416;25.598;2023-06-22T05:56:05;98720.28;;;25.89;74.57
9091;BME280;4581;42.416;25.598;2023-06-22T05:58:32;98729.22;;;26.12;71.48
9091;BME280;4581;42.416;25.598;2023-06-22T06:00:59;98732.06;;;26.37;68.72
9091;BME280;4581;42.416;25.598;2023-06-22T06:03:27;98725.78;;;26.67;69.83
9091;BME280;4581;42.416;25.598;2023-06-22T06:05:55;98730.50;;;26.96;68.63
9091;BME280;4581;42.416;25.598;2023-06-22T06:08:22;98721.38;;;27.21;68.82
9091;BME280;4581;42.416;25.598;2023-06-22T06:10:49;98721.63;;;27.50;66.86
9091;BME280;4581;42.416;25.598;2023-06-22T06:13:15;98726.91;;;27.47;66.65
9091;BME280;4581;42.416;25.598;2023-06-22T06:15:42;98731.50;;;27.86;65.76
9091;BME280;4581;42.416;25.598;2023-06-22T06:18:09;98726.72;;;28.02;63.28
9091;BME280;4581;42.416;25.598;2023-06-22T06:20:35;98727.00;;;28.11;59.77
9091;BME280;4581;42.416;25.598;2023-06-22T06:23:02;98720.31;;;28.17;61.70
9091;BME280;4581;42.416;25.598;2023-06-22T06:25:29;98715.78;;;28.36;61.26
9091;BME280;4581;42.416;25.598;2023-06-22T06:27:57;98722.94;;;28.47;57.96
9091;BME280;4581;42.416;25.598;2023-06-22T06:30:23;98717.91;;;28.49;59.88
9091;BME280;4581;42.416;25.598;2023-06-22T06:32:50;98717.91;;;27.85;59.37
9091;BME280;4581;42.416;25.598;2023-06-22T06:35:17;98710.78;;;28.33;62.38
9091;BME280;4581;42.416;25.598;2023-06-22T06:37:47;98713.63;;;28.67;63.28
9091;BME280;4581;42.416;25.598;2023-06-22T06:40:15;98714.09;;;28.84;59.45
9091;BME280;4581;42.416;25.598;2023-06-22T06:42:46;98718.47;;;29.24;61.91
9091;BME280;4581;42.416;25.598;2023-06-22T06:45:16;98727.06;;;29.56;57.85
9091;BME280;4581;42.416;25.598;2023-06-22T06:47:43;98725.28;;;29.65;56.64
9091;BME280;4581;42.416;25.598;2023-06-22T06:50:11;98721.22;;;29.82;53.58
9091;BME280;4581;42.416;25.598;2023-06-22T06:52:38;98729.22;;;29.64;53.48
9091;BME280;4581;42.416;25.598;2023-06-22T06:55:05;98718.81;;;29.75;55.03
9091;BME280;4581;42.416;25.598;2023-06-22T06:57:35;98728.16;;;29.60;53.06
9091;BME280;4581;42.416;25.598;2023-06-22T07:00:08;98726.50;;;30.07;55.36
9091;BME280;4581;42.416;25.598;2023-06-22T07:02:41;98723.00;;;30.20;56.96
9091;BME280;4581;42.416;25.598;2023-06-22T07:05:08;98732.53;;;30.14;54.03
9091;BME280;4581;42.416;25.598;2023-06-22T07:07:35;98725.44;;;30.03;52.16
9091;BME280;4581;42.416;25.598;2023-06-22T07:10:05;98735.66;;;29.89;50.94
9091;BME280;4581;42.416;25.598;2023-06-22T07:12:32;98735.03;;;30.15;54.05
9091;BME280;4581;42.416;25.598;2023-06-22T07:15:07;98740.81;;;30.19;52.90
9091;BME280;4581;42.416;25.598;2023-06-22T07:17:38;98745.56;;;29.95;52.03
9091;BME280;4581;42.416;25.598;2023-06-22T07:20:08;98737.56;;;30.54;54.66
9091;BME280;4581;42.416;25.598;2023-06-22T07:22:42;98737.13;;;30.47;54.01
9091;BME280;4581;42.416;25.598;2023-06-22T07:25:09;98738.41;;;30.74;51.38
9091;BME280;4581;42.416;25.598;2023-06-22T07:27:37;98745.16;;;30.86;48.92
9091;BME280;4581;42.416;25.598;2023-06-22T07:30:04;98740.34;;;31.10;48.60
9091;BME280;4581;42.416;25.598;2023-06-22T07:32:32;98747.03;;;31.42;48.82
9091;BME280;4581;42.416;25.598;2023-06-22T07:34:59;98762.50;;;31.67;45.57
9091;BME280;4581;42.416;25.598;2023-06-22T07:37:25;98750.25;;;31.81;47.12
9091;BME280;4581;42.416;25.598;2023-06-22T07:39:55;98748.41;;;32.04;47.98
9091;BME280;4581;42.416;25.598;2023-06-22T07:42:27;98742.53;;;32.06;46.28
9091;BME280;4581;42.416;25.598;2023-06-22T07:44:59;98741.59;;;32.24;45.03
9091;BME280;4581;42.416;25.598;2023-06-22T07:47:26;98749.66;;;32.12;47.37
9091;BME280;4581;42.416;25.598;2023-06-22T07:49:55;98751.09;;;32.23;46.42
9091;BME280;4581;42.416;25.598;2023-06-22T07:52:24;98745.41;;;31.87;46.26
9091;BME280;4581;42.416;25.598;2023-06-22T07:54:52;98744.34;;;31.83;48.96
9091;BME280;4581;42.416;25.598;2023-06-22T07:57:19;98739.19;;;31.90;45.35
9091;BME280;4581;42.416;25.598;2023-06-22T07:59:46;98752.56;;;32.20;43.89
9091;BME280;4581;42.416;25.598;2023-06-22T08:02:13;98756.59;;;32.41;43.01
9091;BME280;4581;42.416;25.598;2023-06-22T08:04:40;98760.41;;;32.32;38.97
9091;BME280;4581;42.416;25.598;2023-06-22T08:07:07;98757.22;;;32.11;43.10
9091;BME280;4581;42.416;25.598;2023-06-22T08:09:34;98757.22;;;32.25;39.97
9091;BME280;4581;42.416;25.598;2023-06-22T08:12:01;98756.06;;;31.85;40.00
9091;BME280;4581;42.416;25.598;2023-06-22T08:14:29;98752.53;;;31.93;39.71
9091;BME280;4581;42.416;25.598;2023-06-22T08:16:56;98756.91;;;32.13;38.99
9091;BME280;4581;42.416;25.598;2023-06-22T08:19:23;98758.50;;;31.86;44.38
9091;BME280;4581;42.416;25.598;2023-06-22T08:21:50;98749.47;;;32.08;41.69
9091;BME280;4581;42.416;25.598;2023-06-22T08:24:16;98750.16;;;32.27;40.62
9091;BME280;4581;42.416;25.598;2023-06-22T08:26:43;98764.53;;;32.34;41.01
9091;BME280;4581;42.416;25.598;2023-06-22T08:29:09;98756.25;;;32.43;40.43
9091;BME280;4581;42.416;25.598;2023-06-22T08:31:37;98754.72;;;32.37;41.85
9091;BME280;4581;42.416;25.598;2023-06-22T08:34:04;98755.41;;;32.56;40.87
9091;BME280;4581;42.416;25.598;2023-06-22T08:36:30;98745.59;;;32.45;40.42
9091;BME280;4581;42.416;25.598;2023-06-22T08:39:04;98762.47;;;32.54;41.02
9091;BME280;4581;42.416;25.598;2023-06-22T08:41:30;98752.94;;;32.68;40.92
9091;BME280;4581;42.416;25.598;2023-06-22T08:43:57;98754.00;;;32.31;40.11
9091;BME280;4581;42.416;25.598;2023-06-22T08:46:24;98746.94;;;32.47;41.02
9091;BME280;4581;42.416;25.598;2023-06-22T08:48:57;98743.09;;;32.57;41.00
9091;BME280;4581;42.416;25.598;2023-06-22T08:51:24;98747.78;;;32.62;40.74
9091;BME280;4581;42.416;25.598;2023-06-22T08:53:51;98749.81;;;32.70;42.09
9091;BME280;4581;42.416;25.598;2023-06-22T08:56:17;98743.31;;;32.61;41.78
9091;BME280;4581;42.416;25.598;2023-06-22T08:58:45;98753.34;;;32.34;40.83
9091;BME280;4581;42.416;25.598;2023-06-22T09:01:12;98745.72;;;32.26;42.21
9091;BME280;4581;42.416;25.598;2023-06-22T09:03:38;98740.66;;;32.15;43.55
9091;BME280;4581;42.416;25.598;2023-06-22T09:06:05;98734.88;;;32.11;45.76
9091;BME280;4581;42.416;25.598;2023-06-22T09:08:32;98743.53;;;31.96;44.14
9091;BME280;4581;42.416;25.598;2023-06-22T09:10:59;98748.59;;;31.94;44.93
9091;BME280;4581;42.416;25.598;2023-06-22T09:13:26;98741.50;;;32.15;43.89
9091;BME280;4581;42.416;25.598;2023-06-22T09:15:52;98734.38;;;32.59;44.07
9091;BME280;4581;42.416;25.598;2023-06-22T09:18:19;98740.91;;;32.68;42.18
9091;BME280;4581;42.416;25.598;2023-06-22T09:20:46;98744.28;;;32.29;43.31
9091;BME280;4581;42.416;25.598;2023-06-22T09:23:12;98738.81;;;32.37;46.83
9091;BME280;4581;42.416;25.598;2023-06-22T09:25:39;98737.88;;;32.15;43.56
9091;BME280;4581;42.416;25.598;2023-06-22T09:28:25;98739.28;;;31.58;47.43
9091;BME280;4581;42.416;25.598;2023-06-22T09:31:10;98726.16;;;31.26;45.46
9091;BME280;4581;42.416;25.598;2023-06-22T09:33:37;98728.63;;;31.27;45.41
9091;BME280;4581;42.416;25.598;2023-06-22T09:36:07;98741.03;;;31.21;44.66
9091;BME280;4581;42.416;25.598;2023-06-22T09:38:37;98733.78;;;31.20;48.90
9091;BME280;4581;42.416;25.598;2023-06-22T09:41:04;98742.91;;;30.88;47.15
9091;BME280;4581;42.416;25.598;2023-06-22T09:43:32;98743.59;;;30.80;49.32
9091;BME280;4581;42.416;25.598;2023-06-22T09:46:01;98747.13;;;30.67;48.10
9091;BME280;4581;42.416;25.598;2023-06-22T09:48:29;98745.75;;;30.46;46.65
9091;BME280;4581;42.416;25.598;2023-06-22T09:50:58;98740.69;;;30.29;46.52
9091;BME280;4581;42.416;25.598;2023-06-22T09:53:25;98737.47;;;29.98;48.41
9091;BME280;4581;42.416;25.598;2023-06-22T09:55:52;98735.00;;;29.97;50.04
9091;BME280;4581;42.416;25.598;2023-06-22T09:58:18;98736.75;;;29.88;51.02
9091;BME280;4581;42.416;25.598;2023-06-22T10:00:45;98734.38;;;29.76;50.30
9091;BME280;4581;42.416;25.598;2023-06-22T10:03:12;98727.84;;;29.62;51.59
9091;BME280;4581;42.416;25.598;2023-06-22T10:05:39;98733.84;;;29.98;50.62
9091;BME280;4581;42.416;25.598;2023-06-22T10:08:06;98730.69;;;30.28;49.89
9091;BME280;4581;42.416;25.598;2023-06-22T10:10:34;98729.28;;;30.49;50.52
9091;BME280;4581;42.416;25.598;2023-06-22T10:13:07;98717.91;;;30.27;54.10
9091;BME280;4581;42.416;25.598;2023-06-22T10:15:36;98724.38;;;30.41;48.96
9091;BME280;4581;42.416;25.598;2023-06-22T10:18:03;98729.09;;;30.22;49.97
9091;BME280;4581;42.416;25.598;2023-06-22T10:20:30;98718.13;;;29.88;53.96
9091;BME280;4581;42.416;25.598;2023-06-22T10:22:57;98715.88;;;29.90;50.65
9091;BME280;4581;42.416;25.598;2023-06-22T10:25:26;98717.59;;;29.86;52.57
9091;BME280;4581;42.416;25.598;2023-06-22T10:27:53;98717.72;;;30.00;51.80
9091;BME280;4581;42.416;25.598;2023-06-22T10:30:20;98710.59;;;30.31;51.81
9091;BME280;4581;42.416;25.598;2023-06-22T10:32:47;98720.28;;;30.76;50.18
9091;BME280;4581;42.416;25.598;2023-06-22T10:35:14;98709.63;;;31.16;47.80
9091;BME280;4581;42.416;25.598;2023-06-22T10:37:46;98716.44;;;31.55;45.08
9091;BME280;4581;42.416;25.598;2023-06-22T10:40:14;98715.84;;;31.72;45.16
9091;BME280;4581;42.416;25.598;2023-06-22T10:42:42;98715.22;;;31.62;44.93
9091;BME280;4581;42.416;25.598;2023-06-22T10:45:09;98718.84;;;31.76;44.86
9091;BME280;4581;42.416;25.598;2023-06-22T10:47:36;98707.38;;;32.18;45.04
9091;BME280;4581;42.416;25.598;2023-06-22T10:50:03;98703.47;;;32.69;45.18
9091;BME280;4581;42.416;25.598;2023-06-22T10:52:30;98705.59;;;33.08;43.90
9091;BME280;4581;42.416;25.598;2023-06-22T10:54:57;98701.22;;;33.15;43.30
9091;BME280;4581;42.416;25.598;2023-06-22T10:57:24;98695.94;;;33.36;43.95
9091;BME280;4581;42.416;25.598;2023-06-22T10:59:50;98698.41;;;33.37;42.22
9091;BME280;4581;42.416;25.598;2023-06-22T11:02:17;98704.00;;;33.37;40.71
9091;BME280;4581;42.416;25.598;2023-06-22T11:04:44;98694.41;;;33.08;43.22
9091;BME280;4581;42.416;25.598;2023-06-22T11:07:11;98690.47;;;33.31;44.12
9091;BME280;4581;42.416;25.598;2023-06-22T11:09:37;98696.47;;;33.47;41.09
9091;BME280;4581;42.416;25.598;2023-06-22T11:12:06;98692.53;;;33.48;42.79
9091;BME280;4581;42.416;25.598;2023-06-22T11:14:33;98687.28;;;33.55;41.44
9091;BME280;4581;42.416;25.598;2023-06-22T11:17:00;98684.09;;;33.39;41.90
9091;BME280;4581;42.416;25.598;2023-06-22T11:19:26;98682.72;;;33.28;40.97
9091;BME280;4581;42.416;25.598;2023-06-22T11:21:53;98684.88;;;33.09;41.22
9091;BME280;4581;42.416;25.598;2023-06-22T11:24:20;98673.88;;;32.32;44.37
9091;BME280;4581;42.416;25.598;2023-06-22T11:26:47;98681.25;;;31.60;44.68
9091;BME280;4581;42.416;25.598;2023-06-22T11:29:13;98674.72;;;32.19;44.00
9091;BME280;4581;42.416;25.598;2023-06-22T11:32:00;98665.63;;;32.63;41.66
9091;BME280;4581;42.416;25.598;2023-06-22T11:34:27;98658.72;;;31.97;44.33
9091;BME280;4581;42.416;25.598;2023-06-22T11:36:54;98667.84;;;31.62;45.62
9091;BME280;4581;42.416;25.598;2023-06-22T11:39:21;98664.28;;;32.11;44.43
9091;BME280;4581;42.416;25.598;2023-06-22T11:42:04;98670.41;;;32.84;41.99
9091;BME280;4581;42.416;25.598;2023-06-22T11:44:31;98675.13;;;33.20;42.32
9091;BME280;4581;42.416;25.598;2023-06-22T11:46:58;98675.16;;;33.59;39.05
9091;BME280;4581;42.416;25.598;2023-06-22T11:49:27;98680.34;;;33.44;40.28
9091;BME280;4581;42.416;25.598;2023-06-22T11:51:54;98671.63;;;33.76;37.85
9091;BME280;4581;42.416;25.598;2023-06-22T11:54:21;98666.75;;;33.90;39.43
9091;BME280;4581;42.416;25.598;2023-06-22T11:56:47;98667.00;;;33.40;39.68
9091;BME280;4581;42.416;25.598;2023-06-22T11:59:14;98667.69;;;33.77;36.62
9091;BME280;4581;42.416;25.598;2023-06-22T12:01:41;98669.88;;;33.89;36.63
9091;BME280;4581;42.416;25.598;2023-06-22T12:04:08;98669.44;;;34.12;37.37
9091;BME280;4581;42.416;25.598;2023-06-22T12:06:38;98664.22;;;34.37;38.96
9091;BME280;4581;42.416;25.598;2023-06-22T12:09:07;98655.50;;;34.64;37.58
9091;BME280;4581;42.416;25.598;2023-06-22T12:11:34;98669.38;;;34.69;39.45
9091;BME280;4581;42.416;25.598;2023-06-22T12:14:01;98656.31;;;34.21;41.64
9091;BME280;4581;42.416;25.598;2023-06-22T12:16:28;98666.75;;;34.72;39.33
9091;BME280;4581;42.416;25.598;2023-06-22T12:18:55;98663.91;;;34.47;38.55
9091;BME280;4581;42.416;25.598;2023-06-22T12:21:22;98651.03;;;34.28;39.83
9091;BME280;4581;42.416;25.598;2023-06-22T12:23:49;98656.81;;;33.75;40.17
9091;BME280;4581;42.416;25.598;2023-06-22T12:26:17;98652.66;;;33.33;41.86
9091;BME280;4581;42.416;25.598;2023-06-22T12:28:44;98659.00;;;33.17;41.52
9091;BME280;4581;42.416;25.598;2023-06-22T12:31:10;98651.41;;;32.95;40.32
9091;BME280;4581;42.416;25.598;2023-06-22T12:33:37;98656.16;;;32.94;40.16
9091;BME280;4581;42.416;25.598;2023-06-22T12:36:04;98651.09;;;32.74;40.73
9091;BME280;4581;42.416;25.598;2023-06-22T12:38:31;98648.38;;;32.61;41.62
9091;BME280;4581;42.416;25.598;2023-06-22T12:40:58;98651.28;;;32.42;40.40
9091;BME280;4581;42.416;25.598;2023-06-22T12:43:25;98647.44;;;32.65;40.58
9091;BME280;4581;42.416;25.598;2023-06-22T12:45:51;98642.06;;;33.00;39.78
9091;BME280;4581;42.416;25.598;2023-06-22T12:48:20;98648.72;;;33.34;37.91
9091;BME280;4581;42.416;25.598;2023-06-22T12:50:46;98641.28;;;33.61;37.85
9091;BME280;4581;42.416;25.598;2023-06-22T12:53:14;98638.53;;;33.38;38.72
9091;BME280;4581;42.416;25.598;2023-06-22T12:55:41;98640.63;;;33.64;37.43
9091;BME280;4581;42.416;25.598;2023-06-22T12:58:08;98642.50;;;33.77;36.81
9091;BME280;4581;42.416;25.598;2023-06-22T13:00:34;98638.56;;;33.78;36.86
9091;BME280;4581;42.416;25.598;2023-06-22T13:03:01;98639.38;;;33.70;36.80
9091;BME280;4581;42.416;25.598;2023-06-22T13:05:28;98640.19;;;33.79;36.74
9091;BME280;4581;42.416;25.598;2023-06-22T13:07:55;98647.66;;;33.92;35.56
9091;BME280;4581;42.416;25.598;2023-06-22T13:10:21;98637.66;;;34.08;36.48
9091;BME280;4581;42.416;25.598;2023-06-22T13:12:48;98637.28;;;33.93;37.65
9091;BME280;4581;42.416;25.598;2023-06-22T13:15:15;98635.59;;;33.83;36.38
9091;BME280;4581;42.416;25.598;2023-06-22T13:17:41;98631.97;;;33.82;36.86